sensor_id;sensor_type;location;lat;lon;timestamp;P1;durP1;ratioP1;P2;durP2;ratioP2
37288;SDS011;23174;49.462;11.000;2023-03-09T00:01:30;1.00;;;0.75;;
37288;SDS011;23174;49.462;11.000;2023-03-09T00:03:31;0.63;;;0.63;;
37288;SDS011;23174;49.462;11.000;2023-03-09T00:05:31;1.52;;;0.80;;
37288;SDS011;23174;49.462;11.000;2023-03-09T00:07:32;0.68;;;0.68;;
37288;SDS011;23174;49.462;11.000;2023-03-09T00:09:33;0.68;;;0.63;;
37288;SDS011;23174;49.462;11.000;2023-03-09T00:11:33;0.65;;;0.63;;
37288;SDS011;23174;49.462;11.000;2023-03-09T00:13:34;1.63;;;0.85;;
37288;SDS011;23174;49.462;11.000;2023-03-09T00:15:35;1.33;;;0.90;;
37288;SDS011;23174;49.462;11.000;2023-03-09T00:17:36;0.80;;;0.80;;
37288;SDS011;23174;49.462;11.000;2023-03-09T00:19:37;0.50;;;0.50;;
37288;SDS011;23174;49.462;11.000;2023-03-09T00:21:37;1.17;;;0.93;;
37288;SDS011;23174;49.462;11.000;2023-03-09T00:23:39;0.70;;;0.70;;
37288;SDS011;23174;49.462;11.000;2023-03-09T00:25:39;1.02;;;0.68;;
37288;SDS011;23174;49.462;11.000;2023-03-09T00:27:40;0.77;;;0.60;;
37288;SDS011;23174;49.462;11.000;2023-03-09T00:29:42;0.70;;;0.50;;
37288;SDS011;23174;49.462;11.000;2023-03-09T00:31:43;1.92;;;0.60;;
37288;SDS011;23174;49.462;11.000;2023-03-09T00:33:46;1.08;;;0.68;;
37288;SDS011;23174;49.462;11.000;2023-03-09T00:35:47;0.57;;;0.35;;
37288;SDS011;23174;49.462;11.000;2023-03-09T00:37:48;0.73;;;0.60;;
37288;SDS011;23174;49.462;11.000;2023-03-09T00:39:48;0.50;;;0.50;;
37288;SDS011;23174;49.462;11.000;2023-03-09T00:41:49;0.50;;;0.50;;
37288;SDS011;23174;49.462;11.000;2023-03-09T00:43:49;0.80;;;0.35;;
37288;SDS011;23174;49.462;11.000;2023-03-09T00:45:51;0.63;;;0.40;;
37288;SDS011;23174;49.462;11.000;2023-03-09T00:47:51;0.50;;;0.50;;
37288;SDS011;23174;49.462;11.000;2023-03-09T00:49:52;0.57;;;0.57;;
37288;SDS011;23174;49.462;11.000;2023-03-09T00:51:52;0.85;;;0.65;;
37288;SDS011;23174;49.462;11.000;2023-03-09T00:53:54;0.80;;;0.70;;
37288;SDS011;23174;49.462;11.000;2023-03-09T00:55:55;1.50;;;0.70;;
37288;SDS011;23174;49.462;11.000;2023-03-09T00:57:55;0.52;;;0.50;;
37288;SDS011;23174;49.462;11.000;2023-03-09T00:59:56;0.50;;;0.50;;
37288;SDS011;23174;49.462;11.000;2023-03-09T01:01:57;0.70;;;0.70;;
37288;SDS011;23174;49.462;11.000;2023-03-09T01:03:58;1.35;;;1.05;;
37288;SDS011;23174;49.462;11.000;2023-03-09T01:05:59;0.60;;;0.60;;
37288;SDS011;23174;49.462;11.000;2023-03-09T01:08:00;0.75;;;0.63;;
37288;SDS011;23174;49.462;11.000;2023-03-09T01:10:00;1.05;;;1.05;;
37288;SDS011;23174;49.462;11.000;2023-03-09T01:12:01;0.88;;;0.73;;
37288;SDS011;23174;49.462;11.000;2023-03-09T01:14:01;0.73;;;0.52;;
37288;SDS011;23174;49.462;11.000;2023-03-09T01:16:02;3.33;;;0.82;;
37288;SDS011;23174;49.462;11.000;2023-03-09T01:18:04;0.60;;;0.60;;
37288;SDS011;23174;49.462;11.000;2023-03-09T01:20:05;0.88;;;0.70;;
37288;SDS011;23174;49.462;11.000;2023-03-09T01:22:06;0.50;;;0.50;;
37288;SDS011;23174;49.462;11.000;2023-03-09T01:24:06;0.93;;;0.73;;
37288;SDS011;23174;49.462;11.000;2023-03-09T01:26:07;2.35;;;1.02;;
37288;SDS011;23174;49.462;11.000;2023-03-09T01:28:08;2.00;;;0.90;;
37288;SDS011;23174;49.462;11.000;2023-03-09T01:30:09;0.77;;;0.75;;
37288;SDS011;23174;49.462;11.000;2023-03-09T01:32:11;1.77;;;1.00;;
37288;SDS011;23174;49.462;11.000;2023-03-09T01:34:12;1.50;;;0.75;;
37288;SDS011;23174;49.462;11.000;2023-03-09T01:36:14;1.17;;;0.73;;
37288;SDS011;23174;49.462;11.000;2023-03-09T01:38:16;3.05;;;0.70;;
37288;SDS011;23174;49.462;11.000;2023-03-09T01:40:20;0.60;;;0.60;;
37288;SDS011;23174;49.462;11.000;2023-03-09T01:42:23;1.15;;;0.60;;
37288;SDS011;23174;49.462;11.000;2023-03-09T01:44:24;0.90;;;0.70;;
37288;SDS011;23174;49.462;11.000;2023-03-09T01:46:26;0.50;;;0.50;;
37288;SDS011;23174;49.462;11.000;2023-03-09T01:48:29;0.90;;;0.75;;
37288;SDS011;23174;49.462;11.000;2023-03-09T01:50:32;0.60;;;0.60;;
37288;SDS011;23174;49.462;11.000;2023-03-09T01:52:34;1.27;;;0.40;;
37288;SDS011;23174;49.462;11.000;2023-03-09T01:54:49;0.98;;;0.30;;
37288;SDS011;23174;49.462;11.000;2023-03-09T01:57:00;1.13;;;0.45;;
37288;SDS011;23174;49.462;11.000;2023-03-09T01:59:06;0.90;;;0.60;;
37288;SDS011;23174;49.462;11.000;2023-03-09T02:01:08;1.00;;;0.30;;
37288;SDS011;23174;49.462;11.000;2023-03-09T02:03:11;0.68;;;0.30;;
37288;SDS011;23174;49.462;11.000;2023-03-09T02:05:16;0.73;;;0.45;;
37288;SDS011;23174;49.462;11.000;2023-03-09T02:07:21;0.88;;;0.38;;
37288;SDS011;23174;49.462;11.000;2023-03-09T02:09:25;0.20;;;0.20;;
37288;SDS011;23174;49.462;11.000;2023-03-09T02:11:32;0.30;;;0.30;;
37288;SDS011;23174;49.462;11.000;2023-03-09T02:13:35;0.28;;;0.20;;
37288;SDS011;23174;49.462;11.000;2023-03-09T02:15:38;0.70;;;0.20;;
37288;SDS011;23174;49.462;11.000;2023-03-09T02:17:39;0.50;;;0.40;;
37288;SDS011;23174;49.462;11.000;2023-03-09T02:22:12;0.60;;;0.50;;
37288;SDS011;23174;49.462;11.000;2023-03-09T02:24:16;0.50;;;0.30;;
37288;SDS011;23174;49.462;11.000;2023-03-09T02:28:43;0.98;;;0.30;;
37288;SDS011;23174;49.462;11.000;2023-03-09T02:30:44;0.40;;;0.30;;
37288;SDS011;23174;49.462;11.000;2023-03-09T02:32:47;0.28;;;0.15;;
37288;SDS011;23174;49.462;11.000;2023-03-09T02:34:47;0.20;;;0.20;;
37288;SDS011;23174;49.462;11.000;2023-03-09T02:36:48;0.40;;;0.35;;
37288;SDS011;23174;49.462;11.000;2023-03-09T02:38:49;0.63;;;0.32;;
37288;SDS011;23174;49.462;11.000;2023-03-09T02:40:50;0.22;;;0.20;;
37288;SDS011;23174;49.462;11.000;2023-03-09T02:42:53;0.38;;;0.32;;
37288;SDS011;23174;49.462;11.000;2023-03-09T02:44:54;1.33;;;0.30;;
37288;SDS011;23174;49.462;11.000;2023-03-09T02:46:56;0.28;;;0.28;;
37288;SDS011;23174;49.462;11.000;2023-03-09T02:48:56;0.40;;;0.20;;
37288;SDS011;23174;49.462;11.000;2023-03-09T02:50:57;0.73;;;0.57;;
37288;SDS011;23174;49.462;11.000;2023-03-09T02:52:57;0.25;;;0.25;;
37288;SDS011;23174;49.462;11.000;2023-03-09T02:55:00;1.05;;;0.30;;
37288;SDS011;23174;49.462;11.000;2023-03-09T02:57:00;0.40;;;0.30;;
37288;SDS011;23174;49.462;11.000;2023-03-09T02:59:01;0.65;;;0.30;;
37288;SDS011;23174;49.462;11.000;2023-03-09T03:01:02;0.30;;;0.28;;
37288;SDS011;23174;49.462;11.000;2023-03-09T03:03:03;0.30;;;0.30;;
37288;SDS011;23174;49.462;11.000;2023-03-09T03:05:04;0.52;;;0.30;;
37288;SDS011;23174;49.462;11.000;2023-03-09T03:07:05;0.25;;;0.25;;
37288;SDS011;23174;49.462;11.000;2023-03-09T03:09:06;0.55;;;0.30;;
37288;SDS011;23174;49.462;11.000;2023-03-09T03:11:06;0.65;;;0.20;;
37288;SDS011;23174;49.462;11.000;2023-03-09T03:13:07;0.20;;;0.20;;
37288;SDS011;23174;49.462;11.000;2023-03-09T03:15:08;0.57;;;0.38;;
37288;SDS011;23174;49.462;11.000;2023-03-09T03:17:09;0.75;;;0.32;;
37288;SDS011;23174;49.462;11.000;2023-03-09T03:19:10;1.27;;;0.40;;
37288;SDS011;23174;49.462;11.000;2023-03-09T03:21:10;1.55;;;0.20;;
37288;SDS011;23174;49.462;11.000;2023-03-09T03:23:11;0.57;;;0.30;;
37288;SDS011;23174;49.462;11.000;2023-03-09T03:25:12;0.30;;;0.20;;
37288;SDS011;23174;49.462;11.000;2023-03-09T03:27:13;1.85;;;0.20;;
37288;SDS011;23174;49.462;11.000;2023-03-09T03:29:13;0.15;;;0.15;;
37288;SDS011;23174;49.462;11.000;2023-03-09T03:31:14;0.22;;;0.20;;
37288;SDS011;23174;49.462;11.000;2023-03-09T03:33:15;0.47;;;0.35;;
37288;SDS011;23174;49.462;11.000;2023-03-09T03:35:15;0.57;;;0.40;;
37288;SDS011;23174;49.462;11.000;2023-03-09T03:37:17;0.85;;;0.57;;
37288;SDS011;23174;49.462;11.000;2023-03-09T03:39:17;0.88;;;0.57;;
37288;SDS011;23174;49.462;11.000;2023-03-09T03:41:18;0.38;;;0.38;;
37288;SDS011;23174;49.462;11.000;2023-03-09T03:43:18;0.82;;;0.50;;
37288;SDS011;23174;49.462;11.000;2023-03-09T03:45:19;0.82;;;0.52;;
37288;SDS011;23174;49.462;11.000;2023-03-09T03:47:21;0.88;;;0.30;;
37288;SDS011;23174;49.462;11.000;2023-03-09T03:49:21;0.60;;;0.40;;
37288;SDS011;23174;49.462;11.000;2023-03-09T03:51:22;0.63;;;0.40;;
37288;SDS011;23174;49.462;11.000;2023-03-09T03:53:23;0.50;;;0.40;;
37288;SDS011;23174;49.462;11.000;2023-03-09T03:55:23;0.45;;;0.32;;
37288;SDS011;23174;49.462;11.000;2023-03-09T03:57:24;0.40;;;0.30;;
37288;SDS011;23174;49.462;11.000;2023-03-09T03:59:24;0.70;;;0.40;;
37288;SDS011;23174;49.462;11.000;2023-03-09T04:01:25;0.40;;;0.40;;
37288;SDS011;23174;49.462;11.000;2023-03-09T04:03:26;2.30;;;0.43;;
37288;SDS011;23174;49.462;11.000;2023-03-09T04:05:26;1.30;;;0.50;;
37288;SDS011;23174;49.462;11.000;2023-03-09T04:07:27;0.95;;;0.52;;
37288;SDS011;23174;49.462;11.000;2023-03-09T04:09:27;1.15;;;0.60;;
37288;SDS011;23174;49.462;11.000;2023-03-09T04:11:30;1.27;;;0.50;;
37288;SDS011;23174;49.462;11.000;2023-03-09T04:13:31;1.35;;;0.68;;
37288;SDS011;23174;49.462;11.000;2023-03-09T04:15:32;2.42;;;0.52;;
37288;SDS011;23174;49.462;11.000;2023-03-09T04:17:33;1.08;;;0.47;;
37288;SDS011;23174;49.462;11.000;2023-03-09T04:19:34;0.77;;;0.40;;
37288;SDS011;23174;49.462;11.000;2023-03-09T04:21:34;1.63;;;0.68;;
37288;SDS011;23174;49.462;11.000;2023-03-09T04:23:35;0.75;;;0.63;;
37288;SDS011;23174;49.462;11.000;2023-03-09T04:25:35;2.60;;;0.50;;
37288;SDS011;23174;49.462;11.000;2023-03-09T04:27:36;1.77;;;0.47;;
37288;SDS011;23174;49.462;11.000;2023-03-09T04:29:37;1.02;;;0.82;;
37288;SDS011;23174;49.462;11.000;2023-03-09T04:31:37;1.13;;;0.60;;
37288;SDS011;23174;49.462;11.000;2023-03-09T04:33:38;0.57;;;0.45;;
37288;SDS011;23174;49.462;11.000;2023-03-09T04:35:42;1.20;;;0.68;;
37288;SDS011;23174;49.462;11.000;2023-03-09T04:37:43;1.73;;;0.52;;
37288;SDS011;23174;49.462;11.000;2023-03-09T04:39:44;0.50;;;0.50;;
37288;SDS011;23174;49.462;11.000;2023-03-09T04:41:44;1.33;;;0.50;;
37288;SDS011;23174;49.462;11.000;2023-03-09T04:43:45;0.88;;;0.50;;
37288;SDS011;23174;49.462;11.000;2023-03-09T04:45:46;0.73;;;0.40;;
37288;SDS011;23174;49.462;11.000;2023-03-09T04:47:47;0.55;;;0.30;;
37288;SDS011;23174;49.462;11.000;2023-03-09T04:49:48;1.00;;;0.45;;
37288;SDS011;23174;49.462;11.000;2023-03-09T04:51:49;0.50;;;0.50;;
37288;SDS011;23174;49.462;11.000;2023-03-09T04:53:49;0.82;;;0.50;;
37288;SDS011;23174;49.462;11.000;2023-03-09T04:55:50;0.40;;;0.35;;
37288;SDS011;23174;49.462;11.000;2023-03-09T04:57:50;0.65;;;0.47;;
37288;SDS011;23174;49.462;11.000;2023-03-09T04:59:51;0.40;;;0.20;;
37288;SDS011;23174;49.462;11.000;2023-03-09T05:01:52;0.35;;;0.20;;
37288;SDS011;23174;49.462;11.000;2023-03-09T05:03:52;0.55;;;0.30;;
37288;SDS011;23174;49.462;11.000;2023-03-09T05:05:53;0.43;;;0.30;;
37288;SDS011;23174;49.462;11.000;2023-03-09T05:07:53;0.10;;;0.10;;
37288;SDS011;23174;49.462;11.000;2023-03-09T05:09:54;0.70;;;0.30;;
37288;SDS011;23174;49.462;11.000;2023-03-09T05:11:54;0.80;;;0.30;;
37288;SDS011;23174;49.462;11.000;2023-03-09T05:13:55;0.28;;;0.15;;
37288;SDS011;23174;49.462;11.000;2023-03-09T05:15:56;0.45;;;0.28;;
37288;SDS011;23174;49.462;11.000;2023-03-09T05:17:56;0.30;;;0.30;;
37288;SDS011;23174;49.462;11.000;2023-03-09T05:19:57;0.30;;;0.10;;
37288;SDS011;23174;49.462;11.000;2023-03-09T05:21:57;0.95;;;0.40;;
37288;SDS011;23174;49.462;11.000;2023-03-09T05:23:58;1.10;;;0.50;;
37288;SDS011;23174;49.462;11.000;2023-03-09T05:25:59;0.20;;;0.20;;
37288;SDS011;23174;49.462;11.000;2023-03-09T05:28:01;0.47;;;0.30;;
37288;SDS011;23174;49.462;11.000;2023-03-09T05:30:02;0.25;;;0.25;;
37288;SDS011;23174;49.462;11.000;2023-03-09T05:32:04;0.88;;;0.22;;
37288;SDS011;23174;49.462;11.000;2023-03-09T05:34:05;0.30;;;0.30;;
37288;SDS011;23174;49.462;11.000;2023-03-09T05:36:16;0.20;;;0.20;;
37288;SDS011;23174;49.462;11.000;2023-03-09T05:38:18;0.63;;;0.30;;
37288;SDS011;23174;49.462;11.000;2023-03-09T05:40:18;0.35;;;0.20;;
37288;SDS011;23174;49.462;11.000;2023-03-09T05:42:22;0.38;;;0.38;;
37288;SDS011;23174;49.462;11.000;2023-03-09T05:44:22;0.60;;;0.30;;
37288;SDS011;23174;49.462;11.000;2023-03-09T05:46:23;0.40;;;0.40;;
37288;SDS011;23174;49.462;11.000;2023-03-09T05:48:23;0.73;;;0.52;;
37288;SDS011;23174;49.462;11.000;2023-03-09T05:50:24;0.30;;;0.30;;
37288;SDS011;23174;49.462;11.000;2023-03-09T05:52:25;0.22;;;0.22;;
37288;SDS011;23174;49.462;11.000;2023-03-09T05:54:25;0.35;;;0.35;;
37288;SDS011;23174;49.462;11.000;2023-03-09T05:56:26;2.05;;;0.40;;
37288;SDS011;23174;49.462;11.000;2023-03-09T05:58:27;1.92;;;0.57;;
37288;SDS011;23174;49.462;11.000;2023-03-09T06:00:27;0.20;;;0.20;;
37288;SDS011;23174;49.462;11.000;2023-03-09T06:02:28;0.50;;;0.35;;
37288;SDS011;23174;49.462;11.000;2023-03-09T06:04:29;0.30;;;0.30;;
37288;SDS011;23174;49.462;11.000;2023-03-09T06:06:29;0.32;;;0.20;;
37288;SDS011;23174;49.462;11.000;2023-03-09T06:08:30;0.73;;;0.50;;
37288;SDS011;23174;49.462;11.000;2023-03-09T06:10:31;0.28;;;0.28;;
37288;SDS011;23174;49.462;11.000;2023-03-09T06:12:32;0.32;;;0.30;;
37288;SDS011;23174;49.462;11.000;2023-03-09T06:14:32;0.25;;;0.25;;
37288;SDS011;23174;49.462;11.000;2023-03-09T06:16:33;0.40;;;0.30;;
37288;SDS011;23174;49.462;11.000;2023-03-09T06:18:33;0.50;;;0.50;;
37288;SDS011;23174;49.462;11.000;2023-03-09T06:20:36;0.47;;;0.30;;
37288;SDS011;23174;49.462;11.000;2023-03-09T06:22:36;1.15;;;0.50;;
37288;SDS011;23174;49.462;11.000;2023-03-09T06:24:37;0.30;;;0.30;;
37288;SDS011;23174;49.462;11.000;2023-03-09T06:26:37;0.40;;;0.40;;
37288;SDS011;23174;49.462;11.000;2023-03-09T06:28:38;0.63;;;0.30;;
37288;SDS011;23174;49.462;11.000;2023-03-09T06:30:39;0.75;;;0.40;;
37288;SDS011;23174;49.462;11.000;2023-03-09T06:32:40;0.20;;;0.20;;
37288;SDS011;23174;49.462;11.000;2023-03-09T06:34:40;0.30;;;0.30;;
37288;SDS011;23174;49.462;11.000;2023-03-09T06:36:41;1.25;;;0.47;;
37288;SDS011;23174;49.462;11.000;2023-03-09T06:38:42;0.50;;;0.50;;
37288;SDS011;23174;49.462;11.000;2023-03-09T06:40:42;1.10;;;0.52;;
37288;SDS011;23174;49.462;11.000;2023-03-09T06:42:45;0.52;;;0.40;;
37288;SDS011;23174;49.462;11.000;2023-03-09T06:44:46;0.55;;;0.50;;
37288;SDS011;23174;49.462;11.000;2023-03-09T06:46:46;0.85;;;0.40;;
37288;SDS011;23174;49.462;11.000;2023-03-09T06:48:47;0.95;;;0.52;;
37288;SDS011;23174;49.462;11.000;2023-03-09T06:50:48;0.85;;;0.30;;
37288;SDS011;23174;49.462;11.000;2023-03-09T06:52:48;2.10;;;0.60;;
37288;SDS011;23174;49.462;11.000;2023-03-09T06:54:49;1.08;;;0.65;;
37288;SDS011;23174;49.462;11.000;2023-03-09T06:56:50;0.90;;;0.57;;
37288;SDS011;23174;49.462;11.000;2023-03-09T06:58:52;2.55;;;0.57;;
37288;SDS011;23174;49.462;11.000;2023-03-09T07:00:54;1.55;;;0.50;;
37288;SDS011;23174;49.462;11.000;2023-03-09T07:02:54;1.38;;;0.75;;
37288;SDS011;23174;49.462;11.000;2023-03-09T07:04:55;1.63;;;0.98;;
37288;SDS011;23174;49.462;11.000;2023-03-09T07:06:56;1.83;;;0.90;;
37288;SDS011;23174;49.462;11.000;2023-03-09T07:08:57;1.02;;;0.57;;
37288;SDS011;23174;49.462;11.000;2023-03-09T07:10:57;3.80;;;0.77;;
37288;SDS011;23174;49.462;11.000;2023-03-09T07:12:58;1.75;;;0.70;;
37288;SDS011;23174;49.462;11.000;2023-03-09T07:14:59;1.73;;;0.60;;
37288;SDS011;23174;49.462;11.000;2023-03-09T07:16:59;1.63;;;0.82;;
37288;SDS011;23174;49.462;11.000;2023-03-09T07:19:00;2.55;;;0.70;;
37288;SDS011;23174;49.462;11.000;2023-03-09T07:21:01;1.20;;;0.75;;
37288;SDS011;23174;49.462;11.000;2023-03-09T07:23:02;3.47;;;1.10;;
37288;SDS011;23174;49.462;11.000;2023-03-09T07:25:03;2.45;;;0.93;;
37288;SDS011;23174;49.462;11.000;2023-03-09T07:27:05;1.85;;;1.33;;
37288;SDS011;23174;49.462;11.000;2023-03-09T07:29:07;1.30;;;0.88;;
37288;SDS011;23174;49.462;11.000;2023-03-09T07:31:08;2.58;;;1.27;;
37288;SDS011;23174;49.462;11.000;2023-03-09T07:33:10;2.25;;;1.08;;
37288;SDS011;23174;49.462;11.000;2023-03-09T07:35:11;2.25;;;0.95;;
37288;SDS011;23174;49.462;11.000;2023-03-09T07:37:11;1.00;;;0.80;;
37288;SDS011;23174;49.462;11.000;2023-03-09T07:39:12;2.35;;;0.90;;
37288;SDS011;23174;49.462;11.000;2023-03-09T07:41:13;1.80;;;0.90;;
37288;SDS011;23174;49.462;11.000;2023-03-09T07:43:14;2.65;;;1.00;;
37288;SDS011;23174;49.462;11.000;2023-03-09T07:45:14;3.20;;;0.82;;
37288;SDS011;23174;49.462;11.000;2023-03-09T07:47:15;2.60;;;1.00;;
37288;SDS011;23174;49.462;11.000;2023-03-09T07:49:17;2.92;;;1.10;;
37288;SDS011;23174;49.462;11.000;2023-03-09T07:51:18;5.13;;;1.70;;
37288;SDS011;23174;49.462;11.000;2023-03-09T07:53:19;2.95;;;1.20;;
37288;SDS011;23174;49.462;11.000;2023-03-09T07:55:19;3.53;;;1.40;;
37288;SDS011;23174;49.462;11.000;2023-03-09T07:57:22;3.33;;;1.48;;
37288;SDS011;23174;49.462;11.000;2023-03-09T07:59:23;3.08;;;0.95;;
37288;SDS011;23174;49.462;11.000;2023-03-09T08:01:24;1.65;;;1.08;;
37288;SDS011;23174;49.462;11.000;2023-03-09T08:03:25;3.25;;;1.10;;
37288;SDS011;23174;49.462;11.000;2023-03-09T08:05:26;4.35;;;1.25;;
37288;SDS011;23174;49.462;11.000;2023-03-09T08:07:26;1.85;;;0.95;;
37288;SDS011;23174;49.462;11.000;2023-03-09T08:09:27;2.88;;;1.55;;
37288;SDS011;23174;49.462;11.000;2023-03-09T08:11:27;3.20;;;1.50;;
37288;SDS011;23174;49.462;11.000;2023-03-09T08:13:28;3.15;;;1.25;;
37288;SDS011;23174;49.462;11.000;2023-03-09T08:15:30;6.22;;;1.20;;
37288;SDS011;23174;49.462;11.000;2023-03-09T08:17:30;4.18;;;1.38;;
37288;SDS011;23174;49.462;11.000;2023-03-09T08:19:31;5.57;;;1.38;;
37288;SDS011;23174;49.462;11.000;2023-03-09T08:21:32;1.85;;;0.85;;
37288;SDS011;23174;49.462;11.000;2023-03-09T08:23:34;1.08;;;0.80;;
37288;SDS011;23174;49.462;11.000;2023-03-09T08:25:37;2.40;;;1.20;;
37288;SDS011;23174;49.462;11.000;2023-03-09T08:27:42;2.03;;;0.90;;
37288;SDS011;23174;49.462;11.000;2023-03-09T08:29:45;1.75;;;0.93;;
37288;SDS011;23174;49.462;11.000;2023-03-09T08:31:46;3.08;;;1.17;;
37288;SDS011;23174;49.462;11.000;2023-03-09T08:33:47;3.50;;;0.93;;
37288;SDS011;23174;49.462;11.000;2023-03-09T08:35:47;1.92;;;1.20;;
37288;SDS011;23174;49.462;11.000;2023-03-09T08:37:48;2.45;;;1.27;;
37288;SDS011;23174;49.462;11.000;2023-03-09T08:39:52;5.63;;;1.20;;
37288;SDS011;23174;49.462;11.000;2023-03-09T08:41:52;3.40;;;1.20;;
37288;SDS011;23174;49.462;11.000;2023-03-09T08:43:53;2.17;;;1.27;;
37288;SDS011;23174;49.462;11.000;2023-03-09T08:45:56;2.40;;;1.10;;
37288;SDS011;23174;49.462;11.000;2023-03-09T08:47:56;2.88;;;1.20;;
37288;SDS011;23174;49.462;11.000;2023-03-09T08:49:57;4.72;;;1.65;;
37288;SDS011;23174;49.462;11.000;2023-03-09T08:51:58;2.63;;;1.42;;
37288;SDS011;23174;49.462;11.000;2023-03-09T08:53:58;4.97;;;1.30;;
37288;SDS011;23174;49.462;11.000;2023-03-09T08:56:06;3.72;;;1.30;;
37288;SDS011;23174;49.462;11.000;2023-03-09T08:58:08;4.78;;;1.65;;
37288;SDS011;23174;49.462;11.000;2023-03-09T09:00:09;3.90;;;1.77;;
37288;SDS011;23174;49.462;11.000;2023-03-09T09:02:11;4.88;;;1.90;;
37288;SDS011;23174;49.462;11.000;2023-03-09T09:04:14;2.63;;;1.48;;
37288;SDS011;23174;49.462;11.000;2023-03-09T09:06:14;4.20;;;1.70;;
37288;SDS011;23174;49.462;11.000;2023-03-09T09:08:15;3.05;;;1.70;;
37288;SDS011;23174;49.462;11.000;2023-03-09T09:10:16;4.85;;;1.30;;
37288;SDS011;23174;49.462;11.000;2023-03-09T09:12:16;4.53;;;1.35;;
37288;SDS011;23174;49.462;11.000;2023-03-09T09:14:17;3.90;;;1.52;;
37288;SDS011;23174;49.462;11.000;2023-03-09T09:16:18;4.72;;;1.30;;
37288;SDS011;23174;49.462;11.000;2023-03-09T09:18:18;3.22;;;1.33;;
37288;SDS011;23174;49.462;11.000;2023-03-09T09:20:19;2.83;;;1.05;;
37288;SDS011;23174;49.462;11.000;2023-03-09T09:22:19;1.65;;;0.68;;
37288;SDS011;23174;49.462;11.000;2023-03-09T09:24:20;5.65;;;1.00;;
37288;SDS011;23174;49.462;11.000;2023-03-09T09:26:21;4.63;;;1.42;;
37288;SDS011;23174;49.462;11.000;2023-03-09T09:28:23;3.72;;;1.20;;
37288;SDS011;23174;49.462;11.000;2023-03-09T09:30:23;2.47;;;1.20;;
37288;SDS011;23174;49.462;11.000;2023-03-09T09:32:24;2.53;;;1.35;;
37288;SDS011;23174;49.462;11.000;2023-03-09T09:34:24;2.63;;;1.17;;
37288;SDS011;23174;49.462;11.000;2023-03-09T09:36:31;2.97;;;1.50;;
37288;SDS011;23174;49.462;11.000;2023-03-09T09:38:34;2.65;;;1.15;;
37288;SDS011;23174;49.462;11.000;2023-03-09T09:40:34;2.17;;;1.30;;
37288;SDS011;23174;49.462;11.000;2023-03-09T09:42:39;2.55;;;1.10;;
37288;SDS011;23174;49.462;11.000;2023-03-09T09:44:43;1.67;;;1.02;;
37288;SDS011;23174;49.462;11.000;2023-03-09T09:46:46;1.30;;;0.57;;
37288;SDS011;23174;49.462;11.000;2023-03-09T09:48:48;2.95;;;0.90;;
37288;SDS011;23174;49.462;11.000;2023-03-09T09:55:46;2.40;;;1.15;;
37288;SDS011;23174;49.462;11.000;2023-03-09T09:58:02;2.08;;;0.90;;
37288;SDS011;23174;49.462;11.000;2023-03-09T10:00:32;2.63;;;0.75;;
37288;SDS011;23174;49.462;11.000;2023-03-09T10:02:42;2.47;;;0.85;;
37288;SDS011;23174;49.462;11.000;2023-03-09T10:04:56;2.25;;;0.93;;
37288;SDS011;23174;49.462;11.000;2023-03-09T10:07:17;3.10;;;1.27;;
37288;SDS011;23174;49.462;11.000;2023-03-09T10:09:24;5.70;;;2.20;;
37288;SDS011;23174;49.462;11.000;2023-03-09T10:11:29;1.92;;;0.95;;
37288;SDS011;23174;49.462;11.000;2023-03-09T10:13:33;2.47;;;1.38;;
37288;SDS011;23174;49.462;11.000;2023-03-09T10:15:37;1.20;;;0.85;;
37288;SDS011;23174;49.462;11.000;2023-03-09T10:17:45;2.10;;;1.15;;
37288;SDS011;23174;49.462;11.000;2023-03-09T10:19:51;2.60;;;1.15;;
37288;SDS011;23174;49.462;11.000;2023-03-09T10:21:55;4.45;;;1.10;;
37288;SDS011;23174;49.462;11.000;2023-03-09T10:24:21;3.63;;;0.95;;
37288;SDS011;23174;49.462;11.000;2023-03-09T10:26:29;2.65;;;0.47;;
37288;SDS011;23174;49.462;11.000;2023-03-09T10:28:42;1.13;;;0.22;;
37288;SDS011;23174;49.462;11.000;2023-03-09T10:37:33;1.45;;;0.32;;
37288;SDS011;23174;49.462;11.000;2023-03-09T10:39:39;1.20;;;0.63;;
37288;SDS011;23174;49.462;11.000;2023-03-09T10:41:43;1.15;;;0.47;;
37288;SDS011;23174;49.462;11.000;2023-03-09T10:43:44;0.30;;;0.30;;
37288;SDS011;23174;49.462;11.000;2023-03-09T10:45:46;1.63;;;0.60;;
37288;SDS011;23174;49.462;11.000;2023-03-09T10:48:03;0.60;;;0.35;;
37288;SDS011;23174;49.462;11.000;2023-03-09T10:50:09;0.60;;;0.52;;
37288;SDS011;23174;49.462;11.000;2023-03-09T10:52:16;2.05;;;0.90;;
37288;SDS011;23174;49.462;11.000;2023-03-09T10:56:24;3.85;;;0.65;;
37288;SDS011;23174;49.462;11.000;2023-03-09T10:58:30;2.75;;;0.57;;
37288;SDS011;23174;49.462;11.000;2023-03-09T11:00:30;0.20;;;0.17;;
37288;SDS011;23174;49.462;11.000;2023-03-09T11:02:35;0.73;;;0.50;;
37288;SDS011;23174;49.462;11.000;2023-03-09T11:04:36;1.10;;;0.43;;
37288;SDS011;23174;49.462;11.000;2023-03-09T11:06:37;1.77;;;0.65;;
37288;SDS011;23174;49.462;11.000;2023-03-09T11:08:38;3.40;;;0.50;;
37288;SDS011;23174;49.462;11.000;2023-03-09T11:10:43;0.47;;;0.30;;
37288;SDS011;23174;49.462;11.000;2023-03-09T11:12:43;1.73;;;0.50;;
37288;SDS011;23174;49.462;11.000;2023-03-09T11:17:00;1.98;;;0.90;;
37288;SDS011;23174;49.462;11.000;2023-03-09T11:19:10;3.45;;;0.88;;
37288;SDS011;23174;49.462;11.000;2023-03-09T11:21:21;1.85;;;0.80;;
37288;SDS011;23174;49.462;11.000;2023-03-09T11:28:08;0.47;;;0.35;;
37288;SDS011;23174;49.462;11.000;2023-03-09T11:30:17;1.35;;;0.47;;
37288;SDS011;23174;49.462;11.000;2023-03-09T11:32:21;0.43;;;0.30;;
37288;SDS011;23174;49.462;11.000;2023-03-09T11:34:31;0.30;;;0.30;;
37288;SDS011;23174;49.462;11.000;2023-03-09T11:36:38;0.30;;;0.30;;
37288;SDS011;23174;49.462;11.000;2023-03-09T11:38:43;0.50;;;0.50;;
37288;SDS011;23174;49.462;11.000;2023-03-09T11:40:46;0.55;;;0.30;;
37288;SDS011;23174;49.462;11.000;2023-03-09T11:45:05;1.92;;;0.50;;
37288;SDS011;23174;49.462;11.000;2023-03-09T11:47:19;0.15;;;0.15;;
37288;SDS011;23174;49.462;11.000;2023-03-09T11:49:30;1.27;;;0.60;;
37288;SDS011;23174;49.462;11.000;2023-03-09T11:51:34;1.48;;;0.60;;
37288;SDS011;23174;49.462;11.000;2023-03-09T11:55:49;1.60;;;0.40;;
37288;SDS011;23174;49.462;11.000;2023-03-09T11:57:54;0.32;;;0.32;;
37288;SDS011;23174;49.462;11.000;2023-03-09T12:00:00;0.08;;;0.08;;
37288;SDS011;23174;49.462;11.000;2023-03-09T12:02:20;2.00;;;0.40;;
37288;SDS011;23174;49.462;11.000;2023-03-09T12:04:29;1.10;;;0.50;;
37288;SDS011;23174;49.462;11.000;2023-03-09T12:08:46;1.38;;;0.20;;
37288;SDS011;23174;49.462;11.000;2023-03-09T12:10:48;0.43;;;0.28;;
37288;SDS011;23174;49.462;11.000;2023-03-09T12:13:01;1.02;;;0.65;;
37288;SDS011;23174;49.462;11.000;2023-03-09T12:17:21;2.08;;;0.22;;
37288;SDS011;23174;49.462;11.000;2023-03-09T12:19:27;0.40;;;0.40;;
37288;SDS011;23174;49.462;11.000;2023-03-09T12:21:32;1.88;;;0.40;;
37288;SDS011;23174;49.462;11.000;2023-03-09T12:25:35;0.52;;;0.20;;
37288;SDS011;23174;49.462;11.000;2023-03-09T12:27:37;1.23;;;0.70;;
37288;SDS011;23174;49.462;11.000;2023-03-09T12:29:52;2.35;;;0.88;;
37288;SDS011;23174;49.462;11.000;2023-03-09T12:34:38;1.90;;;0.93;;
37288;SDS011;23174;49.462;11.000;2023-03-09T12:36:40;0.77;;;0.60;;
37288;SDS011;23174;49.462;11.000;2023-03-09T12:38:41;3.15;;;0.98;;
37288;SDS011;23174;49.462;11.000;2023-03-09T12:40:42;1.25;;;0.60;;
37288;SDS011;23174;49.462;11.000;2023-03-09T12:42:44;2.72;;;0.85;;
37288;SDS011;23174;49.462;11.000;2023-03-09T12:46:57;2.10;;;0.82;;